sensor_id;sensor_type;location;lat;lon;timestamp;temperature;humidity
45319;DHT22;31057;48.498;32.260;2023-05-09T00:01:22;9.50;99.20
45319;DHT22;31057;48.498;32.260;2023-05-09T00:03:23;9.50;99.50
45319;DHT22;31057;48.498;32.260;2023-05-09T00:05:25;9.40;99.30
45319;DHT22;31057;48.498;32.260;2023-05-09T00:07:27;9.40;99.50
45319;DHT22;31057;48.498;32.260;2023-05-09T00:09:29;9.40;99.60
45319;DHT22;31057;48.498;32.260;2023-05-09T00:11:31;9.30;99.80
45319;DHT22;31057;48.498;32.260;2023-05-09T00:13:33;9.20;99.90
45319;DHT22;31057;48.498;32.260;2023-05-09T00:15:35;9.20;99.80
45319;DHT22;31057;48.498;32.260;2023-05-09T00:17:37;9.20;99.90
45319;DHT22;31057;48.498;32.260;2023-05-09T00:19:40;9.10;99.90
45319;DHT22;31057;48.498;32.260;2023-05-09T00:21:42;9.10;99.80
45319;DHT22;31057;48.498;32.260;2023-05-09T00:23:45;9.10;99.90
45319;DHT22;31057;48.498;32.260;2023-05-09T00:25:47;9.10;99.90
45319;DHT22;31057;48.498;32.260;2023-05-09T00:27:49;9.00;99.90
45319;DHT22;31057;48.498;32.260;2023-05-09T00:29:51;9.00;99.90
45319;DHT22;31057;48.498;32.260;2023-05-09T00:31:53;9.00;99.90
45319;DHT22;31057;48.498;32.260;2023-05-09T00:33:55;9.00;99.90
45319;DHT22;31057;48.498;32.260;2023-05-09T00:35:57;8.90;99.90
45319;DHT22;31057;48.498;32.260;2023-05-09T00:37:59;8.90;99.90
45319;DHT22;31057;48.498;32.260;2023-05-09T00:40:02;8.80;99.90
45319;DHT22;31057;48.498;32.260;2023-05-09T00:42:04;8.90;99.90
45319;DHT22;31057;48.498;32.260;2023-05-09T00:44:06;8.90;99.90
45319;DHT22;31057;48.498;32.260;2023-05-09T00:46:08;8.80;99.90
45319;DHT22;31057;48.498;32.260;2023-05-09T00:48:10;8.70;99.90
45319;DHT22;31057;48.498;32.260;2023-05-09T00:50:12;8.60;99.90
45319;DHT22;31057;48.498;32.260;2023-05-09T00:52:14;8.60;99.90
45319;DHT22;31057;48.498;32.260;2023-05-09T00:54:16;8.50;99.90
45319;DHT22;31057;48.498;32.260;2023-05-09T00:56:18;8.50;99.90
45319;DHT22;31057;48.498;32.260;2023-05-09T00:58:20;8.50;99.90
45319;DHT22;31057;48.498;32.260;2023-05-09T01:00:22;8.40;99.90
45319;DHT22;31057;48.498;32.260;2023-05-09T01:02:24;8.30;99.90
45319;DHT22;31057;48.498;32.260;2023-05-09T01:04:26;8.30;99.90
45319;DHT22;31057;48.498;32.260;2023-05-09T01:11:28;8.00;99.90
45319;DHT22;31057;48.498;32.260;2023-05-09T01:13:43;8.10;99.90
45319;DHT22;31057;48.498;32.260;2023-05-09T01:18:43;8.00;99.90
45319;DHT22;31057;48.498;32.260;2023-05-09T01:20:52;7.90;99.90
45319;DHT22;31057;48.498;32.260;2023-05-09T01:29:47;7.80;99.90
45319;DHT22;31057;48.498;32.260;2023-05-09T01:31:52;7.80;99.90
45319;DHT22;31057;48.498;32.260;2023-05-09T01:33:58;7.80;99.90
45319;DHT22;31057;48.498;32.260;2023-05-09T01:36:07;7.80;99.90
45319;DHT22;31057;48.498;32.260;2023-05-09T01:38:13;7.70;99.90
45319;DHT22;31057;48.498;32.260;2023-05-09T01:40:19;7.60;99.90
45319;DHT22;31057;48.498;32.260;2023-05-09T01:42:24;7.50;99.90
45319;DHT22;31057;48.498;32.260;2023-05-09T01:44:31;7.40;99.90
45319;DHT22;31057;48.498;32.260;2023-05-09T01:46:35;7.50;99.90
45319;DHT22;31057;48.498;32.260;2023-05-09T01:48:38;7.50;99.90
45319;DHT22;31057;48.498;32.260;2023-05-09T01:50:42;7.40;99.90
45319;DHT22;31057;48.498;32.260;2023-05-09T01:52:49;7.20;99.90
45319;DHT22;31057;48.498;32.260;2023-05-09T01:54:53;7.30;99.90
45319;DHT22;31057;48.498;32.260;2023-05-09T01:56:55;7.30;99.90
45319;DHT22;31057;48.498;32.260;2023-05-09T01:58:59;7.30;99.90
45319;DHT22;31057;48.498;32.260;2023-05-09T02:01:04;7.20;99.90
45319;DHT22;31057;48.498;32.260;2023-05-09T02:03:06;7.30;99.90
45319;DHT22;31057;48.498;32.260;2023-05-09T02:05:09;7.20;99.90
45319;DHT22;31057;48.498;32.260;2023-05-09T02:07:12;7.20;99.90
45319;DHT22;31057;48.498;32.260;2023-05-09T02:09:14;7.10;99.90
45319;DHT22;31057;48.498;32.260;2023-05-09T02:11:16;7.00;99.90
45319;DHT22;31057;48.498;32.260;2023-05-09T02:13:18;6.90;99.90
45319;DHT22;31057;48.498;32.260;2023-05-09T02:15:20;6.90;99.90
45319;DHT22;31057;48.498;32.260;2023-05-09T02:17:23;6.90;99.90
45319;DHT22;31057;48.498;32.260;2023-05-09T02:19:25;6.90;99.90
45319;DHT22;31057;48.498;32.260;2023-05-09T02:21:27;6.80;99.90
45319;DHT22;31057;48.498;32.260;2023-05-09T02:23:30;6.90;99.90
45319;DHT22;31057;48.498;32.260;2023-05-09T02:25:33;6.70;99.90
45319;DHT22;31057;48.498;32.260;2023-05-09T02:27:37;6.70;99.90
45319;DHT22;31057;48.498;32.260;2023-05-09T02:30:00;6.50;99.90
45319;DHT22;31057;48.498;32.260;2023-05-09T02:32:17;6.40;99.90
45319;DHT22;31057;48.498;32.260;2023-05-09T02:34:21;6.50;99.90
45319;DHT22;31057;48.498;32.260;2023-05-09T02:36:23;6.40;99.90
45319;DHT22;31057;48.498;32.260;2023-05-09T02:38:25;6.50;99.90
45319;DHT22;31057;48.498;32.260;2023-05-09T02:40:29;6.70;99.90
45319;DHT22;31057;48.498;32.260;2023-05-09T02:42:31;6.90;99.90
45319;DHT22;31057;48.498;32.260;2023-05-09T02:44:33;7.20;99.90
45319;DHT22;31057;48.498;32.260;2023-05-09T02:46:35;7.20;99.90
45319;DHT22;31057;48.498;32.260;2023-05-09T02:48:37;7.30;99.90
45319;DHT22;31057;48.498;32.260;2023-05-09T02:50:39;7.40;99.90
45319;DHT22;31057;48.498;32.260;2023-05-09T02:52:43;7.60;99.90
45319;DHT22;31057;48.498;32.260;2023-05-09T02:54:45;7.60;99.90
45319;DHT22;31057;48.498;32.260;2023-05-09T02:56:48;7.70;99.90
45319;DHT22;31057;48.498;32.260;2023-05-09T02:58:50;7.50;99.90
45319;DHT22;31057;48.498;32.260;2023-05-09T03:00:52;7.10;99.90
45319;DHT22;31057;48.498;32.260;2023-05-09T03:02:54;6.80;99.90
45319;DHT22;31057;48.498;32.260;2023-05-09T03:04:56;6.80;99.90
45319;DHT22;31057;48.498;32.260;2023-05-09T03:06:58;6.70;99.90
45319;DHT22;31057;48.498;32.260;2023-05-09T03:09:00;6.60;99.90
45319;DHT22;31057;48.498;32.260;2023-05-09T03:11:02;6.60;99.90
45319;DHT22;31057;48.498;32.260;2023-05-09T03:13:04;6.80;99.90
45319;DHT22;31057;48.498;32.260;2023-05-09T03:15:06;6.90;99.90
45319;DHT22;31057;48.498;32.260;2023-05-09T03:17:08;6.80;99.90
45319;DHT22;31057;48.498;32.260;2023-05-09T03:19:10;6.70;99.90
45319;DHT22;31057;48.498;32.260;2023-05-09T03:21:12;6.90;99.90
45319;DHT22;31057;48.498;32.260;2023-05-09T03:23:16;7.10;99.90
45319;DHT22;31057;48.498;32.260;2023-05-09T03:25:18;7.20;99.90
45319;DHT22;31057;48.498;32.260;2023-05-09T03:27:20;7.20;99.90
45319;DHT22;31057;48.498;32.260;2023-05-09T03:29:22;7.30;99.90
45319;DHT22;31057;48.498;32.260;2023-05-09T03:31:24;7.30;99.90
45319;DHT22;31057;48.498;32.260;2023-05-09T03:33:26;7.40;99.90
45319;DHT22;31057;48.498;32.260;2023-05-09T03:35:27;7.40;99.90
45319;DHT22;31057;48.498;32.260;2023-05-09T03:37:31;7.50;99.90
45319;DHT22;31057;48.498;32.260;2023-05-09T03:39:32;7.60;99.90
45319;DHT22;31057;48.498;32.260;2023-05-09T03:41:35;7.60;99.90
45319;DHT22;31057;48.498;32.260;2023-05-09T03:43:37;7.60;99.90
45319;DHT22;31057;48.498;32.260;2023-05-09T03:45:39;7.70;99.90
45319;DHT22;31057;48.498;32.260;2023-05-09T03:47:41;7.70;99.90
45319;DHT22;31057;48.498;32.260;2023-05-09T03:49:43;7.70;99.90
45319;DHT22;31057;48.498;32.260;2023-05-09T03:51:45;7.90;99.90
45319;DHT22;31057;48.498;32.260;2023-05-09T03:53:47;7.90;99.90
45319;DHT22;31057;48.498;32.260;2023-05-09T03:55:49;7.90;99.90
45319;DHT22;31057;48.498;32.260;2023-05-09T03:57:50;8.00;99.90
45319;DHT22;31057;48.498;32.260;2023-05-09T03:59:54;8.20;99.90
45319;DHT22;31057;48.498;32.260;2023-05-09T04:01:55;8.20;99.90
45319;DHT22;31057;48.498;32.260;2023-05-09T04:03:57;8.20;99.90
45319;DHT22;31057;48.498;32.260;2023-05-09T04:06:01;8.30;99.90
45319;DHT22;31057;48.498;32.260;2023-05-09T04:08:03;8.50;99.90
45319;DHT22;31057;48.498;32.260;2023-05-09T04:10:07;8.60;99.90
45319;DHT22;31057;48.498;32.260;2023-05-09T04:12:09;8.60;99.90
45319;DHT22;31057;48.498;32.260;2023-05-09T04:14:11;8.60;99.90
45319;DHT22;31057;48.498;32.260;2023-05-09T04:16:13;8.70;99.90
45319;DHT22;31057;48.498;32.260;2023-05-09T04:18:15;8.80;99.90
45319;DHT22;31057;48.498;32.260;2023-05-09T04:20:17;8.80;99.90
45319;DHT22;31057;48.498;32.260;2023-05-09T04:22:19;8.90;99.90
45319;DHT22;31057;48.498;32.260;2023-05-09T04:24:21;9.00;99.90
45319;DHT22;31057;48.498;32.260;2023-05-09T04:26:23;9.10;99.90
45319;DHT22;31057;48.498;32.260;2023-05-09T04:28:25;9.00;99.90
45319;DHT22;31057;48.498;32.260;2023-05-09T04:30:27;9.00;99.90
45319;DHT22;31057;48.498;32.260;2023-05-09T04:32:29;9.10;99.90
45319;DHT22;31057;48.498;32.260;2023-05-09T04:34:31;9.30;99.90
45319;DHT22;31057;48.498;32.260;2023-05-09T04:36:33;9.20;99.90
45319;DHT22;31057;48.498;32.260;2023-05-09T04:38:35;9.20;99.90
45319;DHT22;31057;48.498;32.260;2023-05-09T04:40:37;9.20;99.90
45319;DHT22;31057;48.498;32.260;2023-05-09T04:42:39;9.30;99.90
45319;DHT22;31057;48.498;32.260;2023-05-09T04:44:41;9.30;99.90
45319;DHT22;31057;48.498;32.260;2023-05-09T04:46:44;9.50;99.90
45319;DHT22;31057;48.498;32.260;2023-05-09T04:48:45;9.50;99.90
45319;DHT22;31057;48.498;32.260;2023-05-09T04:50:47;9.50;99.90
45319;DHT22;31057;48.498;32.260;2023-05-09T04:52:49;9.60;99.90
45319;DHT22;31057;48.498;32.260;2023-05-09T04:54:51;9.80;99.90
45319;DHT22;31057;48.498;32.260;2023-05-09T04:56:53;10.00;99.90
45319;DHT22;31057;48.498;32.260;2023-05-09T04:59:07;9.90;99.90
45319;DHT22;31057;48.498;32.260;2023-05-09T05:01:09;9.90;99.90
45319;DHT22;31057;48.498;32.260;2023-05-09T05:03:11;10.00;99.90
45319;DHT22;31057;48.498;32.260;2023-05-09T05:05:13;10.00;99.90
45319;DHT22;31057;48.498;32.260;2023-05-09T05:07:15;10.10;99.90
45319;DHT22;31057;48.498;32.260;2023-05-09T05:09:17;10.20;99.90
45319;DHT22;31057;48.498;32.260;2023-05-09T05:11:19;10.40;99.90
45319;DHT22;31057;48.498;32.260;2023-05-09T05:13:22;10.40;99.90
45319;DHT22;31057;48.498;32.260;2023-05-09T05:15:24;10.60;99.90
45319;DHT22;31057;48.498;32.260;2023-05-09T05:17:27;10.50;99.90
45319;DHT22;31057;48.498;32.260;2023-05-09T05:19:30;10.40;99.90
45319;DHT22;31057;48.498;32.260;2023-05-09T05:21:32;10.40;99.90
45319;DHT22;31057;48.498;32.260;2023-05-09T05:23:34;10.30;99.90
45319;DHT22;31057;48.498;32.260;2023-05-09T05:25:36;10.50;99.90
45319;DHT22;31057;48.498;32.260;2023-05-09T05:27:38;10.50;99.90
45319;DHT22;31057;48.498;32.260;2023-05-09T05:29:39;10.50;99.90
45319;DHT22;31057;48.498;32.260;2023-05-09T05:31:41;10.60;99.90
45319;DHT22;31057;48.498;32.260;2023-05-09T05:33:43;10.80;99.90
45319;DHT22;31057;48.498;32.260;2023-05-09T05:35:45;10.70;99.90
45319;DHT22;31057;48.498;32.260;2023-05-09T05:37:47;11.00;99.90
45319;DHT22;31057;48.498;32.260;2023-05-09T05:39:51;10.80;99.90
45319;DHT22;31057;48.498;32.260;2023-05-09T05:41:52;10.80;99.90
45319;DHT22;31057;48.498;32.260;2023-05-09T05:43:54;11.00;99.90
45319;DHT22;31057;48.498;32.260;2023-05-09T05:45:56;11.00;99.90
45319;DHT22;31057;48.498;32.260;2023-05-09T05:47:58;10.80;99.90
45319;DHT22;31057;48.498;32.260;2023-05-09T05:50:01;11.10;99.90
45319;DHT22;31057;48.498;32.260;2023-05-09T05:52:03;11.10;99.90
45319;DHT22;31057;48.498;32.260;2023-05-09T05:54:05;11.20;99.90
45319;DHT22;31057;48.498;32.260;2023-05-09T05:56:07;11.20;99.90
45319;DHT22;31057;48.498;32.260;2023-05-09T05:58:09;11.20;99.90
45319;DHT22;31057;48.498;32.260;2023-05-09T06:00:12;11.20;99.90
45319;DHT22;31057;48.498;32.260;2023-05-09T06:02:16;11.10;99.90
45319;DHT22;31057;48.498;32.260;2023-05-09T06:04:18;11.30;99.90
45319;DHT22;31057;48.498;32.260;2023-05-09T06:06:20;11.00;99.90
45319;DHT22;31057;48.498;32.260;2023-05-09T06:08:22;11.30;99.90
45319;DHT22;31057;48.498;32.260;2023-05-09T06:10:24;11.30;99.90
45319;DHT22;31057;48.498;32.260;2023-05-09T06:12:26;11.50;99.90
45319;DHT22;31057;48.498;32.260;2023-05-09T06:14:28;11.70;99.90
45319;DHT22;31057;48.498;32.260;2023-05-09T06:16:30;11.80;99.90
45319;DHT22;31057;48.498;32.260;2023-05-09T06:18:36;11.80;99.90
45319;DHT22;31057;48.498;32.260;2023-05-09T06:20:40;11.80;99.90
45319;DHT22;31057;48.498;32.260;2023-05-09T06:22:42;11.80;99.90
45319;DHT22;31057;48.498;32.260;2023-05-09T06:24:44;11.60;99.90
45319;DHT22;31057;48.498;32.260;2023-05-09T06:26:46;11.70;99.90
45319;DHT22;31057;48.498;32.260;2023-05-09T06:28:48;11.70;99.90
45319;DHT22;31057;48.498;32.260;2023-05-09T06:30:50;11.90;99.90
45319;DHT22;31057;48.498;32.260;2023-05-09T06:32:52;11.90;99.90
45319;DHT22;31057;48.498;32.260;2023-05-09T06:34:54;11.90;99.90
45319;DHT22;31057;48.498;32.260;2023-05-09T06:36:57;12.00;99.90
45319;DHT22;31057;48.498;32.260;2023-05-09T06:38:58;12.00;99.90
45319;DHT22;31057;48.498;32.260;2023-05-09T06:41:00;12.20;99.90
45319;DHT22;31057;48.498;32.260;2023-05-09T06:43:02;12.30;99.90
45319;DHT22;31057;48.498;32.260;2023-05-09T06:45:04;12.20;99.90
45319;DHT22;31057;48.498;32.260;2023-05-09T06:47:07;12.10;99.90
45319;DHT22;31057;48.498;32.260;2023-05-09T06:49:08;12.30;99.90
45319;DHT22;31057;48.498;32.260;2023-05-09T06:51:11;12.20;99.90
45319;DHT22;31057;48.498;32.260;2023-05-09T06:53:13;12.20;99.90
45319;DHT22;31057;48.498;32.260;2023-05-09T06:55:16;12.40;99.90
45319;DHT22;31057;48.498;32.260;2023-05-09T06:57:18;12.60;99.90
45319;DHT22;31057;48.498;32.260;2023-05-09T06:59:19;12.60;99.90
45319;DHT22;31057;48.498;32.260;2023-05-09T07:01:21;12.90;99.90
45319;DHT22;31057;48.498;32.260;2023-05-09T07:03:23;12.40;99.90
45319;DHT22;31057;48.498;32.260;2023-05-09T07:05:25;12.40;99.90
45319;DHT22;31057;48.498;32.260;2023-05-09T07:07:27;12.60;99.90
45319;DHT22;31057;48.498;32.260;2023-05-09T07:09:29;13.00;99.90
45319;DHT22;31057;48.498;32.260;2023-05-09T07:11:35;13.10;99.90
45319;DHT22;31057;48.498;32.260;2023-05-09T07:13:37;13.00;99.90
45319;DHT22;31057;48.498;32.260;2023-05-09T07:15:39;12.60;99.90
45319;DHT22;31057;48.498;32.260;2023-05-09T07:17:43;12.40;99.90
45319;DHT22;31057;48.498;32.260;2023-05-09T07:19:45;12.50;99.90
45319;DHT22;31057;48.498;32.260;2023-05-09T07:21:47;12.70;99.90
45319;DHT22;31057;48.498;32.260;2023-05-09T07:23:49;12.80;99.90
45319;DHT22;31057;48.498;32.260;2023-05-09T07:25:57;12.80;99.90
45319;DHT22;31057;48.498;32.260;2023-05-09T07:27:59;13.10;99.90
45319;DHT22;31057;48.498;32.260;2023-05-09T07:30:04;13.00;99.90
45319;DHT22;31057;48.498;32.260;2023-05-09T07:32:06;13.20;99.90
45319;DHT22;31057;48.498;32.260;2023-05-09T07:34:08;12.70;99.90
45319;DHT22;31057;48.498;32.260;2023-05-09T07:36:10;13.10;99.90
45319;DHT22;31057;48.498;32.260;2023-05-09T07:38:17;12.90;99.90
45319;DHT22;31057;48.498;32.260;2023-05-09T07:40:19;12.90;99.90
45319;DHT22;31057;48.498;32.260;2023-05-09T07:42:21;13.20;99.90
45319;DHT22;31057;48.498;32.260;2023-05-09T07:44:23;13.10;99.90
45319;DHT22;31057;48.498;32.260;2023-05-09T07:46:24;13.00;99.90
45319;DHT22;31057;48.498;32.260;2023-05-09T07:48:27;13.30;99.90
45319;DHT22;31057;48.498;32.260;2023-05-09T07:50:28;13.40;99.90
45319;DHT22;31057;48.498;32.260;2023-05-09T07:52:31;13.50;99.90
45319;DHT22;31057;48.498;32.260;2023-05-09T07:54:33;13.50;99.90
45319;DHT22;31057;48.498;32.260;2023-05-09T07:56:34;13.40;99.40
45319;DHT22;31057;48.498;32.260;2023-05-09T07:58:36;13.50;99.40
45319;DHT22;31057;48.498;32.260;2023-05-09T08:00:38;13.50;99.80
45319;DHT22;31057;48.498;32.260;2023-05-09T08:02:41;13.80;99.80
45319;DHT22;31057;48.498;32.260;2023-05-09T08:04:43;13.70;99.20
45319;DHT22;31057;48.498;32.260;2023-05-09T08:06:45;13.50;98.40
45319;DHT22;31057;48.498;32.260;2023-05-09T08:08:47;14.00;99.30
45319;DHT22;31057;48.498;32.260;2023-05-09T08:10:49;14.90;99.60
45319;DHT22;31057;48.498;32.260;2023-05-09T08:12:51;14.60;98.50
45319;DHT22;31057;48.498;32.260;2023-05-09T08:14:53;14.70;98.20
45319;DHT22;31057;48.498;32.260;2023-05-09T08:16:55;14.30;98.50
45319;DHT22;31057;48.498;32.260;2023-05-09T08:18:57;14.10;98.50
45319;DHT22;31057;48.498;32.260;2023-05-09T08:20:59;14.00;98.30
45319;DHT22;31057;48.498;32.260;2023-05-09T08:23:01;13.70;98.30
45319;DHT22;31057;48.498;32.260;2023-05-09T08:25:03;13.70;98.50
45319;DHT22;31057;48.498;32.260;2023-05-09T08:27:05;13.70;98.20
45319;DHT22;31057;48.498;32.260;2023-05-09T08:29:07;13.80;98.20
45319;DHT22;31057;48.498;32.260;2023-05-09T08:31:09;13.80;97.30
45319;DHT22;31057;48.498;32.260;2023-05-09T08:33:11;14.00;97.60
45319;DHT22;31057;48.498;32.260;2023-05-09T08:35:14;14.10;98.20
45319;DHT22;31057;48.498;32.260;2023-05-09T08:37:16;13.90;96.90
45319;DHT22;31057;48.498;32.260;2023-05-09T08:39:18;13.80;97.50
45319;DHT22;31057;48.498;32.260;2023-05-09T08:41:23;14.00;97.30
45319;DHT22;31057;48.498;32.260;2023-05-09T08:43:27;14.00;97.10
45319;DHT22;31057;48.498;32.260;2023-05-09T08:45:30;13.90;96.40
45319;DHT22;31057;48.498;32.260;2023-05-09T08:47:36;14.00;96.50
45319;DHT22;31057;48.498;32.260;2023-05-09T08:49:39;14.10;96.60
45319;DHT22;31057;48.498;32.260;2023-05-09T08:51:42;14.50;97.30
45319;DHT22;31057;48.498;32.260;2023-05-09T08:53:44;14.10;95.80
45319;DHT22;31057;48.498;32.260;2023-05-09T08:55:46;14.20;96.20
45319;DHT22;31057;48.498;32.260;2023-05-09T08:57:48;14.00;95.80
45319;DHT22;31057;48.498;32.260;2023-05-09T08:59:50;14.30;96.70
45319;DHT22;31057;48.498;32.260;2023-05-09T09:01:53;14.00;95.90
45319;DHT22;31057;48.498;32.260;2023-05-09T09:03:55;14.10;95.50
45319;DHT22;31057;48.498;32.260;2023-05-09T09:05:57;14.10;95.60
45319;DHT22;31057;48.498;32.260;2023-05-09T09:08:00;14.60;96.10
45319;DHT22;31057;48.498;32.260;2023-05-09T09:10:03;14.50;95.70
45319;DHT22;31057;48.498;32.260;2023-05-09T09:12:06;14.30;95.30
45319;DHT22;31057;48.498;32.260;2023-05-09T09:14:12;14.20;95.10
45319;DHT22;31057;48.498;32.260;2023-05-09T09:16:21;14.20;94.90
45319;DHT22;31057;48.498;32.260;2023-05-09T09:18:29;14.10;95.00
45319;DHT22;31057;48.498;32.260;2023-05-09T09:20:33;14.20;95.10
45319;DHT22;31057;48.498;32.260;2023-05-09T09:22:37;14.40;95.30
45319;DHT22;31057;48.498;32.260;2023-05-09T09:24:44;14.40;95.00
45319;DHT22;31057;48.498;32.260;2023-05-09T09:26:48;14.60;95.10
45319;DHT22;31057;48.498;32.260;2023-05-09T09:28:50;14.60;95.70
45319;DHT22;31057;48.498;32.260;2023-05-09T09:30:52;14.40;95.50
45319;DHT22;31057;48.498;32.260;2023-05-09T09:32:54;14.60;96.20
45319;DHT22;31057;48.498;32.260;2023-05-09T09:35:06;14.40;95.30
45319;DHT22;31057;48.498;32.260;2023-05-09T09:37:09;14.40;95.60
45319;DHT22;31057;48.498;32.260;2023-05-09T09:39:21;14.40;95.10
45319;DHT22;31057;48.498;32.260;2023-05-09T09:41:33;14.60;95.20
45319;DHT22;31057;48.498;32.260;2023-05-09T09:43:36;14.60;95.50
45319;DHT22;31057;48.498;32.260;2023-05-09T09:45:38;14.50;94.70
45319;DHT22;31057;48.498;32.260;2023-05-09T09:47:44;14.50;94.40
45319;DHT22;31057;48.498;32.260;2023-05-09T09:49:46;14.50;95.30
45319;DHT22;31057;48.498;32.260;2023-05-09T09:51:51;14.70;95.20
45319;DHT22;31057;48.498;32.260;2023-05-09T09:53:54;15.00;95.50
45319;DHT22;31057;48.498;32.260;2023-05-09T09:55:56;14.50;94.70
45319;DHT22;31057;48.498;32.260;2023-05-09T09:57:59;14.80;95.70
45319;DHT22;31057;48.498;32.260;2023-05-09T10:00:01;14.80;95.20
45319;DHT22;31057;48.498;32.260;2023-05-09T10:02:05;15.10;95.50
45319;DHT22;31057;48.498;32.260;2023-05-09T10:04:14;14.70;94.50
45319;DHT22;31057;48.498;32.260;2023-05-09T10:06:17;14.80;95.10
45319;DHT22;31057;48.498;32.260;2023-05-09T10:08:19;14.70;95.00
45319;DHT22;31057;48.498;32.260;2023-05-09T10:10:21;14.60;95.10
45319;DHT22;31057;48.498;32.260;2023-05-09T10:12:23;14.60;95.60
45319;DHT22;31057;48.498;32.260;2023-05-09T10:14:25;14.60;95.50
45319;DHT22;31057;48.498;32.260;2023-05-09T10:16:28;14.70;95.40
45319;DHT22;31057;48.498;32.260;2023-05-09T10:18:44;14.50;94.80
45319;DHT22;31057;48.498;32.260;2023-05-09T10:20:46;14.70;95.60
45319;DHT22;31057;48.498;32.260;2023-05-09T10:22:48;14.90;96.10
45319;DHT22;31057;48.498;32.260;2023-05-09T10:27:02;14.90;96.60
45319;DHT22;31057;48.498;32.260;2023-05-09T10:29:09;15.10;95.50
45319;DHT22;31057;48.498;32.260;2023-05-09T10:31:25;14.80;94.70
45319;DHT22;31057;48.498;32.260;2023-05-09T10:33:33;14.80;94.90
45319;DHT22;31057;48.498;32.260;2023-05-09T10:35:49;14.80;94.90
45319;DHT22;31057;48.498;32.260;2023-05-09T10:37:55;14.80;95.10
45319;DHT22;31057;48.498;32.260;2023-05-09T10:40:02;14.50;95.40
45319;DHT22;31057;48.498;32.260;2023-05-09T10:42:04;14.60;95.20
45319;DHT22;31057;48.498;32.260;2023-05-09T10:44:07;14.50;94.90
45319;DHT22;31057;48.498;32.260;2023-05-09T10:46:11;14.40;94.20
45319;DHT22;31057;48.498;32.260;2023-05-09T10:48:14;14.50;95.10
45319;DHT22;31057;48.498;32.260;2023-05-09T10:50:17;14.50;94.70
45319;DHT22;31057;48.498;32.260;2023-05-09T10:52:22;14.30;94.10
45319;DHT22;31057;48.498;32.260;2023-05-09T10:54:28;14.40;94.90
45319;DHT22;31057;48.498;32.260;2023-05-09T10:56:32;14.50;94.80
45319;DHT22;31057;48.498;32.260;2023-05-09T10:58:34;14.30;94.60
45319;DHT22;31057;48.498;32.260;2023-05-09T11:00:41;14.40;94.90
45319;DHT22;31057;48.498;32.260;2023-05-09T11:03:06;14.30;95.00
45319;DHT22;31057;48.498;32.260;2023-05-09T11:05:18;14.30;94.70
45319;DHT22;31057;48.498;32.260;2023-05-09T11:07:26;14.30;94.40
45319;DHT22;31057;48.498;32.260;2023-05-09T11:09:35;14.50;95.30
45319;DHT22;31057;48.498;32.260;2023-05-09T11:11:50;14.20;94.80
45319;DHT22;31057;48.498;32.260;2023-05-09T11:13:56;14.30;94.60
45319;DHT22;31057;48.498;32.260;2023-05-09T11:18:09;14.50;95.00
45319;DHT22;31057;48.498;32.260;2023-05-09T11:20:11;14.50;94.50
45319;DHT22;31057;48.498;32.260;2023-05-09T11:22:19;14.10;93.90
45319;DHT22;31057;48.498;32.260;2023-05-09T11:24:21;14.10;94.10
45319;DHT22;31057;48.498;32.260;2023-05-09T11:26:27;14.20;94.40
45319;DHT22;31057;48.498;32.260;2023-05-09T11:28:32;14.10;94.70
45319;DHT22;31057;48.498;32.260;2023-05-09T11:30:39;14.00;95.30
45319;DHT22;31057;48.498;32.260;2023-05-09T11:32:45;13.90;95.10
45319;DHT22;31057;48.498;32.260;2023-05-09T11:34:48;13.90;95.20
45319;DHT22;31057;48.498;32.260;2023-05-09T11:36:50;13.90;95.30
45319;DHT22;31057;48.498;32.260;2023-05-09T11:39:08;14.10;95.40
45319;DHT22;31057;48.498;32.260;2023-05-09T11:41:10;14.20;95.20
45319;DHT22;31057;48.498;32.260;2023-05-09T11:43:12;14.40;94.80
45319;DHT22;31057;48.498;32.260;2023-05-09T11:45:15;14.50;94.90
45319;DHT22;31057;48.498;32.260;2023-05-09T11:47:19;14.70;95.20
45319;DHT22;31057;48.498;32.260;2023-05-09T11:49:21;14.90;95.30
45319;DHT22;31057;48.498;32.260;2023-05-09T11:51:23;14.90;95.20
45319;DHT22;31057;48.498;32.260;2023-05-09T11:53:25;14.90;94.80
45319;DHT22;31057;48.498;32.260;2023-05-09T11:55:27;15.40;94.50
45319;DHT22;31057;48.498;32.260;2023-05-09T11:57:34;15.40;94.70
45319;DHT22;31057;48.498;32.260;2023-05-09T11:59:37;15.70;94.60
45319;DHT22;31057;48.498;32.260;2023-05-09T12:01:39;16.00;95.00
45319;DHT22;31057;48.498;32.260;2023-05-09T12:03:44;15.70;93.50
45319;DHT22;31057;48.498;32.260;2023-05-09T12:05:47;16.00;94.10
45319;DHT22;31057;48.498;32.260;2023-05-09T12:07:49;16.30;94.40
45319;DHT22;31057;48.498;32.260;2023-05-09T12:09:53;15.70;93.70
45319;DHT22;31057;48.498;32.260;2023-05-09T12:11:55;15.30;94.00
45319;DHT22;31057;48.498;32.260;2023-05-09T12:13:56;14.90;93.40
45319;DHT22;31057;48.498;32.260;2023-05-09T12:16:01;15.10;94.20
45319;DHT22;31057;48.498;32.260;2023-05-09T12:18:05;15.00;93.50
45319;DHT22;31057;48.498;32.260;2023-05-09T12:20:09;15.10;93.90
45319;DHT22;31057;48.498;32.260;2023-05-09T12:22:11;15.30;94.00
45319;DHT22;31057;48.498;32.260;2023-05-09T12:24:18;15.40;93.40
45319;DHT22;31057;48.498;32.260;2023-05-09T12:26:21;14.70;92.80
45319;DHT22;31057;48.498;32.260;2023-05-09T12:28:24;14.60;93.00
45319;DHT22;31057;48.498;32.260;2023-05-09T12:30:30;14.70;93.80
45319;DHT22;31057;48.498;32.260;2023-05-09T12:32:32;14.60;93.30
45319;DHT22;31057;48.498;32.260;2023-05-09T12:34:35;14.80;93.60
45319;DHT22;31057;48.498;32.260;2023-05-09T12:36:37;14.60;92.90
45319;DHT22;31057;48.498;32.260;2023-05-09T12:38:39;14.80;93.00
45319;DHT22;31057;48.498;32.260;2023-05-09T12:40:47;15.20;92.80
45319;DHT22;31057;48.498;32.260;2023-05-09T12:42:49;15.30;93.00
45319;DHT22;31057;48.498;32.260;2023-05-09T12:44:54;15.40;92.00
45319;DHT22;31057;48.498;32.260;2023-05-09T12:47:00;15.60;92.90
45319;DHT22;31057;48.498;32.260;2023-05-09T12:49:03;16.00;92.70
45319;DHT22;31057;48.498;32.260;2023-05-09T12:51:06;16.20;92.40
45319;DHT22;31057;48.498;32.260;2023-05-09T12:53:08;16.40;93.90
45319;DHT22;31057;48.498;32.260;2023-05-09T12:55:13;16.10;91.40
45319;DHT22;31057;48.498;32.260;2023-05-09T12:57:23;15.60;91.40
45319;DHT22;31057;48.498;32.260;2023-05-09T12:59:26;15.30;91.80
45319;DHT22;31057;48.498;32.260;2023-05-09T13:01:29;15.30;92.60
45319;DHT22;31057;48.498;32.260;2023-05-09T13:03:31;15.30;92.50
45319;DHT22;31057;48.498;32.260;2023-05-09T13:05:38;15.20;93.20
45319;DHT22;31057;48.498;32.260;2023-05-09T13:07:45;14.80;92.60
45319;DHT22;31057;48.498;32.260;2023-05-09T13:09:54;14.50;93.10
45319;DHT22;31057;48.498;32.260;2023-05-09T13:11:57;14.40;93.40